createdAt,value
2023-01-04T00:02:05.706Z,100.00
2023-01-04T00:04:35.518Z,100.00
2023-01-04T00:07:03.985Z,100.00
2023-01-04T00:09:32.424Z,100.00
2023-01-04T00:12:00.873Z,100.00
2023-01-04T00:14:29.505Z,100.00
2023-01-04T00:16:57.895Z,100.00
2023-01-04T00:19:26.277Z,100.00
2023-01-04T00:21:56.114Z,100.00
2023-01-04T00:24:24.519Z,100.00
2023-01-04T00:26:52.859Z,100.00
2023-01-04T00:29:21.770Z,100.00
2023-01-04T00:31:50.314Z,100.00
2023-01-04T00:34:20.010Z,100.00
2023-01-04T00:36:49.149Z,100.00
2023-01-04T00:39:19.070Z,100.00
2023-01-04T00:42:04.975Z,100.00
2023-01-04T00:44:35.133Z,100.00
2023-01-04T00:47:05.210Z,100.00
2023-01-04T00:49:34.359Z,100.00
2023-01-04T00:52:03.101Z,100.00
2023-01-04T00:54:32.816Z,100.00
2023-01-04T00:57:01.589Z,100.00
2023-01-04T00:59:30.219Z,100.00
2023-01-04T01:01:58.739Z,100.00
2023-01-04T01:04:27.443Z,100.00
2023-01-04T01:06:55.990Z,100.00
2023-01-04T01:09:24.715Z,100.00
2023-01-04T01:11:55.319Z,100.00
2023-01-04T01:14:26.038Z,100.00
2023-01-04T01:16:57.197Z,100.00
2023-01-04T01:19:28.002Z,100.00
2023-01-04T01:21:57.727Z,100.00
2023-01-04T01:24:27.545Z,100.00
2023-01-04T01:26:57.833Z,100.00
2023-01-04T01:29:26.331Z,100.00
2023-01-04T01:31:55.508Z,100.00
2023-01-04T01:34:24.125Z,100.00
2023-01-04T01:36:52.433Z,100.00
2023-01-04T01:39:21.039Z,100.00
2023-01-04T01:41:50.987Z,100.00
2023-01-04T01:45:11.070Z,100.00
2023-01-04T01:47:43.485Z,100.00
2023-01-04T01:50:24.482Z,100.00
2023-01-04T01:52:55.436Z,100.00
2023-01-04T01:55:24.717Z,100.00
2023-01-04T01:57:55.799Z,100.00
2023-01-04T02:00:26.091Z,100.00
2023-01-04T02:03:05.939Z,100.00
2023-01-04T02:05:35.424Z,100.00
2023-01-04T02:08:05.348Z,100.00
2023-01-04T02:10:34.583Z,100.00
2023-01-04T02:13:09.467Z,100.00
2023-01-04T02:15:57.597Z,100.00
2023-01-04T02:18:34.200Z,100.00
2023-01-04T02:21:08.337Z,100.00
2023-01-04T02:24:19.401Z,100.00
2023-01-04T02:27:37.650Z,100.00
2023-01-04T02:30:57.842Z,100.00
2023-01-04T02:33:46.563Z,100.00
2023-01-04T02:36:24.914Z,100.00
2023-01-04T02:39:07.187Z,100.00
2023-01-04T02:41:44.212Z,100.00
2023-01-04T02:44:31.887Z,100.00
2023-01-04T02:47:06.606Z,100.00
2023-01-04T02:49:52.375Z,100.00
2023-01-04T02:52:23.076Z,100.00
2023-01-04T02:54:53.451Z,100.00
2023-01-04T02:57:42.516Z,100.00
2023-01-04T03:00:32.201Z,100.00
2023-01-04T03:03:39.507Z,100.00
2023-01-04T03:06:18.285Z,100.00
2023-01-04T03:08:57.642Z,100.00
2023-01-04T03:11:52.242Z,100.00
2023-01-04T03:14:32.269Z,100.00
2023-01-04T03:17:07.301Z,100.00
2023-01-04T03:19:55.955Z,100.00
2023-01-04T03:22:51.194Z,100.00
2023-01-04T03:25:42.454Z,100.00
2023-01-04T03:28:31.904Z,100.00
2023-01-04T03:31:30.047Z,100.00
2023-01-04T03:34:16.465Z,100.00
2023-01-04T03:37:01.441Z,100.00
2023-01-04T03:40:00.236Z,100.00
2023-01-04T03:42:55.403Z,100.00
2023-01-04T03:45:44.991Z,100.00
2023-01-04T03:48:33.372Z,100.00
2023-01-04T03:51:14.542Z,100.00
2023-01-04T03:53:56.064Z,100.00
2023-01-04T03:56:25.981Z,100.00
2023-01-04T03:58:54.804Z,100.00
2023-01-04T04:01:26.883Z,100.00
2023-01-04T04:04:14.056Z,100.00
2023-01-04T04:07:00.138Z,100.00
2023-01-04T04:09:29.909Z,100.00
2023-01-04T04:11:59.006Z,100.00
2023-01-04T04:14:27.525Z,100.00
2023-01-04T04:16:55.893Z,100.00
2023-01-04T04:19:24.319Z,100.00
2023-01-04T04:21:52.616Z,100.00
2023-01-04T04:24:24.339Z,100.00
2023-01-04T04:26:55.434Z,100.00
2023-01-04T04:29:24.684Z,100.00
2023-01-04T04:31:53.311Z,100.00
2023-01-04T04:34:21.781Z,100.00
2023-01-04T04:36:50.073Z,100.00
2023-01-04T04:39:18.830Z,100.00
2023-01-04T04:41:46.219Z,100.00
2023-01-04T04:44:18.337Z,100.00
2023-01-04T04:46:48.065Z,100.00
2023-01-04T04:49:16.959Z,100.00
2023-01-04T04:51:46.378Z,100.00
2023-01-04T04:54:19.660Z,100.00
2023-01-04T04:56:48.469Z,100.00
2023-01-04T04:59:18.752Z,100.00
2023-01-04T05:01:47.272Z,100.00
2023-01-04T05:04:17.080Z,100.00
2023-01-04T05:06:46.110Z,100.00
2023-01-04T05:09:15.128Z,100.00
2023-01-04T05:12:01.706Z,100.00
2023-01-04T05:14:31.684Z,100.00
2023-01-04T05:17:00.218Z,100.00
2023-01-04T05:19:28.616Z,100.00
2023-01-04T05:21:56.975Z,100.00
2023-01-04T05:24:25.315Z,100.00
2023-01-04T05:26:53.765Z,100.00
2023-01-04T05:29:39.799Z,100.00
2023-01-04T05:32:09.681Z,100.00
2023-01-04T05:34:38.342Z,100.00
2023-01-04T05:37:06.688Z,100.00
2023-01-04T05:39:35.094Z,100.00
2023-01-04T05:42:21.239Z,100.00
2023-01-04T05:44:49.591Z,100.00
2023-01-04T05:47:19.449Z,100.00
2023-01-04T05:49:47.934Z,100.00
2023-01-04T05:52:16.247Z,100.00
2023-01-04T05:54:44.755Z,100.00
2023-01-04T05:57:15.086Z,100.00
2023-01-04T05:59:43.682Z,100.00
2023-01-04T06:02:19.873Z,100.00
2023-01-04T06:04:54.643Z,100.00
2023-01-04T06:07:27.062Z,100.00
2023-01-04T06:09:55.473Z,100.00
2023-01-04T06:12:23.893Z,100.00
2023-01-04T06:14:52.303Z,100.00
2023-01-04T06:17:22.077Z,100.00
2023-01-04T06:19:50.447Z,100.00
2023-01-04T06:22:18.742Z,100.00
2023-01-04T06:24:47.086Z,100.00
2023-01-04T06:27:15.449Z,100.00
2023-01-04T06:29:43.851Z,100.00
2023-01-04T06:32:12.607Z,100.00
2023-01-04T06:34:42.385Z,100.00
2023-01-04T06:37:11.203Z,100.00
2023-01-04T06:39:39.597Z,100.00
2023-01-04T06:42:29.388Z,100.00
2023-01-04T06:44:57.726Z,100.00
2023-01-04T06:47:26.198Z,100.00
2023-01-04T06:49:55.841Z,100.00
2023-01-04T06:52:24.213Z,100.00
2023-01-04T06:54:52.605Z,100.00
2023-01-04T06:57:21.016Z,100.00
2023-01-04T06:59:49.371Z,100.00
2023-01-04T07:02:17.980Z,100.00
2023-01-04T07:04:46.580Z,100.00
2023-01-04T07:07:16.470Z,100.00
2023-01-04T07:09:44.954Z,100.00
2023-01-04T07:12:13.285Z,100.00
2023-01-04T07:14:41.638Z,100.00
2023-01-04T07:17:10.090Z,100.00
2023-01-04T07:19:38.474Z,100.00
2023-01-04T07:22:06.910Z,100.00
2023-01-04T07:24:36.658Z,100.00
2023-01-04T07:27:05.339Z,100.00
2023-01-04T07:29:33.749Z,100.00
2023-01-04T07:32:02.111Z,100.00
2023-01-04T07:34:30.551Z,100.00
2023-01-04T07:36:58.858Z,100.00
2023-01-04T07:39:27.398Z,100.00
2023-01-04T07:41:57.108Z,100.00
2023-01-04T07:44:27.952Z,100.00
2023-01-04T07:46:57.451Z,100.00
2023-01-04T07:49:25.760Z,100.00
2023-01-04T07:51:54.146Z,100.00
2023-01-04T07:54:24.007Z,100.00
2023-01-04T07:56:53.536Z,100.00
2023-01-04T07:59:23.676Z,100.00
2023-01-04T08:01:52.241Z,100.00
2023-01-04T08:04:29.629Z,100.00
2023-01-04T08:07:01.253Z,100.00
2023-01-04T08:09:29.661Z,100.00
2023-01-04T08:11:58.085Z,100.00
2023-01-04T08:14:27.770Z,100.00
2023-01-04T08:16:56.180Z,100.00
2023-01-04T08:19:24.557Z,100.00
2023-01-04T08:21:52.964Z,100.00
2023-01-04T08:24:21.736Z,100.00
2023-01-04T08:26:50.114Z,100.00
2023-01-04T08:29:18.488Z,100.00
2023-01-04T08:31:48.504Z,100.00
2023-01-04T08:34:16.958Z,100.00
2023-01-04T08:36:49.246Z,100.00
2023-01-04T08:39:18.146Z,100.00
2023-01-04T08:41:59.311Z,100.00
2023-01-04T08:44:31.216Z,100.00
2023-01-04T08:47:00.941Z,100.00
2023-01-04T08:49:29.393Z,100.00
2023-01-04T08:51:57.762Z,100.00
2023-01-04T08:54:26.291Z,100.00
2023-01-04T08:56:54.686Z,100.00
2023-01-04T08:59:23.055Z,100.00
2023-01-04T09:01:51.719Z,100.00
2023-01-04T09:04:21.708Z,100.00
2023-01-04T09:06:50.166Z,100.00
2023-01-04T09:09:18.690Z,100.00
2023-01-04T09:11:47.167Z,100.00
2023-01-04T09:14:15.523Z,100.00
2023-01-04T09:16:44.341Z,100.00
2023-01-04T09:19:18.073Z,100.00
2023-01-04T09:21:51.386Z,100.00
2023-01-04T09:24:19.912Z,100.00
2023-01-04T09:26:48.485Z,100.00
2023-01-04T09:29:17.495Z,100.00
2023-01-04T09:31:45.906Z,100.00
2023-01-04T09:34:16.582Z,100.00
2023-01-04T09:36:46.463Z,100.00
2023-01-04T09:39:24.643Z,100.00
2023-01-04T09:41:58.896Z,100.00
2023-01-04T09:47:38.064Z,100.00
2023-01-04T09:50:14.310Z,100.00
2023-01-04T09:52:53.091Z,100.00
2023-01-04T09:55:37.219Z,100.00
2023-01-04T09:58:22.767Z,100.00
2023-01-04T10:00:59.760Z,100.00
2023-01-04T10:03:34.146Z,100.00
2023-01-04T10:06:04.163Z,100.00
2023-01-04T10:08:32.855Z,100.00
2023-01-04T10:11:22.897Z,100.00
2023-01-04T10:14:18.493Z,100.00
2023-01-04T10:17:14.931Z,100.00
2023-01-04T10:23:26.000Z,100.00
2023-01-04T10:25:58.303Z,100.00
2023-01-04T10:29:03.480Z,100.00
2023-01-04T10:31:41.845Z,100.00
2023-01-04T10:34:23.609Z,100.00
2023-01-04T10:36:57.232Z,100.00
2023-01-04T10:39:33.103Z,100.00
2023-01-04T10:42:16.223Z,100.00
2023-01-04T10:45:09.625Z,100.00
2023-01-04T10:47:50.547Z,100.00
2023-01-04T10:50:23.045Z,100.00
2023-01-04T10:52:57.998Z,100.00
2023-01-04T10:55:32.903Z,100.00
2023-01-04T10:58:06.504Z,100.00
2023-01-04T11:00:44.787Z,100.00
2023-01-04T11:03:21.703Z,100.00
2023-01-04T11:05:56.031Z,100.00
2023-01-04T11:08:30.168Z,100.00
2023-01-04T11:11:05.562Z,100.00
2023-01-04T11:13:35.387Z,100.00
2023-01-04T11:16:07.109Z,100.00
2023-01-04T11:18:38.780Z,100.00
2023-01-04T11:21:12.391Z,100.00
2023-01-04T11:23:40.776Z,100.00
2023-01-04T11:26:15.018Z,100.00
2023-01-04T11:28:50.979Z,100.00
2023-01-04T11:31:27.979Z,100.00
2023-01-04T11:33:58.983Z,100.00
2023-01-04T11:36:39.771Z,100.00
2023-01-04T11:39:19.353Z,100.00
2023-01-04T11:42:02.610Z,100.00
2023-01-04T11:44:33.656Z,100.00
2023-01-04T11:47:18.550Z,100.00
2023-01-04T11:49:47.406Z,100.00
2023-01-04T11:52:32.247Z,100.00
2023-01-04T11:55:18.708Z,100.00
2023-01-04T11:57:48.231Z,100.00
2023-01-04T12:00:18.548Z,100.00
2023-01-04T12:03:01.356Z,100.00
2023-01-04T12:05:33.093Z,100.00
2023-01-04T12:08:01.597Z,100.00
2023-01-04T12:10:30.245Z,100.00
2023-01-04T12:13:02.578Z,100.00
2023-01-04T12:15:51.173Z,100.00
2023-01-04T12:18:27.060Z,100.00
2023-01-04T12:20:56.059Z,100.00
2023-01-04T12:23:25.011Z,100.00
2023-01-04T12:25:55.093Z,100.00
2023-01-04T12:28:36.496Z,100.00
2023-01-04T12:31:32.714Z,100.00
2023-01-04T12:34:43.848Z,100.00
2023-01-04T12:37:49.460Z,100.00
2023-01-04T12:40:57.623Z,100.00
2023-01-04T12:43:28.183Z,100.00
2023-01-04T12:47:01.654Z,100.00
2023-01-04T12:50:00.843Z,100.00
2023-01-04T12:53:10.733Z,100.00
2023-01-04T12:56:00.821Z,100.00
2023-01-04T12:59:23.469Z,100.00
2023-01-04T13:01:32.308Z,100.00
2023-01-04T13:04:06.249Z,100.00
2023-01-04T13:06:46.383Z,100.00
2023-01-04T13:09:24.847Z,100.00
2023-01-04T13:12:17.231Z,100.00
2023-01-04T13:14:49.997Z,100.00
2023-01-04T13:17:22.322Z,100.00
2023-01-04T13:19:51.316Z,100.00
2023-01-04T13:22:29.575Z,100.00
2023-01-04T13:25:00.354Z,100.00
2023-01-04T13:27:29.004Z,100.00
2023-01-04T13:29:57.680Z,100.00
2023-01-04T13:32:28.425Z,100.00
2023-01-04T13:34:59.679Z,100.00
2023-01-04T13:37:32.010Z,100.00
2023-01-04T13:40:27.894Z,100.00
2023-01-04T13:43:19.705Z,100.00
2023-01-04T13:46:06.527Z,100.00
2023-01-04T13:48:38.928Z,100.00
2023-01-04T13:51:15.862Z,100.00
2023-01-04T13:53:54.832Z,100.00
2023-01-04T13:56:25.544Z,100.00
2023-01-04T13:58:53.952Z,100.00
2023-01-04T14:01:26.029Z,100.00
2023-01-04T14:03:59.332Z,100.00
2023-01-04T14:06:30.892Z,100.00
2023-01-04T14:09:15.951Z,100.00
2023-01-04T14:12:09.919Z,100.00
2023-01-04T14:14:50.196Z,100.00
2023-01-04T14:17:30.210Z,100.00
2023-01-04T14:20:00.566Z,100.00
2023-01-04T14:22:52.435Z,100.00
2023-01-04T14:25:45.840Z,100.00
2023-01-04T14:28:49.481Z,100.00
2023-01-04T14:31:31.977Z,100.00
2023-01-04T14:34:05.086Z,100.00
2023-01-04T14:36:36.448Z,100.00
2023-01-04T14:39:32.700Z,100.00
2023-01-04T14:42:04.779Z,100.00
2023-01-04T14:44:36.045Z,100.00
2023-01-04T14:47:07.317Z,100.00
2023-01-04T14:49:35.930Z,100.00
2023-01-04T14:52:11.548Z,100.00
2023-01-04T14:54:40.279Z,100.00
2023-01-04T14:57:11.437Z,100.00
2023-01-04T14:59:39.861Z,100.00
2023-01-04T15:02:11.385Z,100.00
2023-01-04T15:04:39.884Z,100.00
2023-01-04T15:07:08.661Z,100.00
2023-01-04T15:09:37.347Z,100.00
2023-01-04T15:12:06.668Z,100.00
2023-01-04T15:14:36.350Z,100.00
2023-01-04T15:17:04.724Z,100.00
2023-01-04T15:19:37.736Z,99.85
2023-01-04T15:22:06.810Z,99.78
2023-01-04T15:24:35.185Z,99.84
2023-01-04T15:27:03.554Z,100.00
2023-01-04T15:29:32.187Z,100.00
2023-01-04T15:32:02.074Z,100.00
2023-01-04T15:34:30.472Z,100.00
2023-01-04T15:36:59.007Z,100.00
2023-01-04T15:39:27.417Z,100.00
2023-01-04T15:42:13.516Z,100.00
2023-01-04T15:44:41.957Z,100.00
2023-01-04T15:47:11.641Z,100.00
2023-01-04T15:49:40.077Z,100.00
2023-01-04T15:52:08.408Z,100.00
2023-01-04T15:54:36.831Z,99.92
2023-01-04T15:57:05.366Z,100.00
2023-01-04T15:59:33.850Z,100.00
2023-01-04T16:02:02.264Z,100.00
2023-01-04T16:04:32.889Z,100.00
2023-01-04T16:07:01.273Z,99.99
2023-01-04T16:09:29.939Z,99.98
2023-01-04T16:12:16.225Z,100.00
2023-01-04T16:14:44.603Z,100.00
2023-01-04T16:17:12.954Z,99.81
2023-01-04T16:19:42.838Z,99.70
2023-01-04T16:22:11.543Z,99.35
2023-01-04T16:27:33.247Z,99.26
2023-01-04T16:30:04.795Z,98.92
2023-01-04T16:32:33.321Z,98.61
2023-01-04T16:35:03.074Z,98.74
2023-01-04T16:37:31.634Z,98.93
2023-01-04T16:40:08.893Z,98.87
2023-01-04T16:42:38.612Z,98.67
2023-01-04T16:45:09.273Z,98.37
2023-01-04T16:47:41.279Z,98.42
2023-01-04T16:50:12.224Z,98.42
2023-01-04T16:52:41.074Z,97.95
2023-01-04T16:55:10.890Z,97.97
2023-01-04T16:57:39.643Z,97.80
2023-01-04T17:00:09.976Z,98.02
2023-01-04T17:02:38.492Z,98.04
2023-01-04T17:05:08.185Z,97.75
2023-01-04T17:07:37.944Z,97.20
2023-01-04T17:10:08.267Z,97.12
2023-01-04T17:12:47.163Z,96.71
2023-01-04T17:15:42.445Z,96.91
2023-01-04T17:18:05.413Z,96.69
2023-01-04T17:20:33.701Z,96.83
2023-01-04T17:23:03.640Z,96.38
2023-01-04T17:25:32.969Z,96.64
2023-01-04T17:28:01.289Z,97.12
2023-01-04T17:30:29.633Z,97.74
2023-01-04T17:32:59.008Z,98.64
2023-01-04T17:35:27.443Z,98.70
2023-01-04T17:37:55.734Z,99.16
2023-01-04T17:40:25.681Z,98.79
2023-01-04T17:42:53.982Z,99.12
2023-01-04T17:45:22.587Z,99.14
2023-01-04T17:47:51.201Z,99.58
2023-01-04T17:50:19.690Z,99.52
2023-01-04T17:52:49.014Z,100.00
2023-01-04T17:55:18.030Z,100.00
2023-01-04T17:57:47.920Z,100.00
2023-01-04T18:00:17.021Z,100.00
2023-01-04T18:02:45.726Z,100.00
2023-01-04T18:05:14.156Z,100.00
2023-01-04T18:07:42.547Z,100.00
2023-01-04T18:10:26.809Z,100.00
2023-01-04T18:13:03.004Z,100.00
2023-01-04T18:15:31.380Z,100.00
2023-01-04T18:17:59.812Z,100.00
2023-01-04T18:20:28.757Z,100.00
2023-01-04T18:22:57.327Z,100.00
2023-01-04T18:25:26.181Z,100.00
2023-01-04T18:27:54.656Z,100.00
2023-01-04T18:30:24.468Z,100.00
2023-01-04T18:32:52.830Z,100.00
2023-01-04T18:35:21.260Z,100.00
2023-01-04T18:37:49.929Z,99.91
2023-01-04T18:40:18.548Z,100.00
2023-01-04T18:42:50.149Z,100.00
2023-01-04T18:45:19.831Z,100.00
2023-01-04T18:47:49.516Z,100.00
2023-01-04T18:50:18.924Z,100.00
2023-01-04T18:52:47.257Z,100.00
2023-01-04T18:55:15.738Z,100.00
2023-01-04T18:57:44.351Z,99.25
2023-01-04T19:00:14.743Z,99.41
2023-01-04T19:02:43.494Z,98.60
2023-01-04T19:05:13.692Z,98.52
2023-01-04T19:07:42.094Z,97.92
2023-01-04T19:10:10.849Z,97.61
2023-01-04T19:12:39.523Z,97.25
2023-01-04T19:15:10.347Z,96.86
2023-01-04T19:17:39.029Z,96.57
2023-01-04T19:20:08.747Z,96.19
2023-01-04T19:22:38.561Z,96.07
2023-01-04T19:25:08.334Z,95.66
2023-01-04T19:27:36.738Z,95.58
2023-01-04T19:30:06.380Z,95.38
2023-01-04T19:32:35.709Z,94.98
2023-01-04T19:35:04.089Z,95.24
2023-01-04T19:37:32.456Z,95.13
2023-01-04T19:40:02.510Z,94.98
2023-01-04T19:42:31.939Z,94.79
2023-01-04T19:45:00.331Z,94.45
2023-01-04T19:47:28.752Z,94.18
2023-01-04T19:49:57.140Z,94.21
2023-01-04T19:52:25.492Z,93.71
2023-01-04T19:54:53.880Z,93.64
2023-01-04T19:57:23.658Z,92.81
2023-01-04T19:59:52.345Z,92.92
2023-01-04T20:02:20.946Z,92.86
2023-01-04T20:04:49.432Z,92.38
2023-01-04T20:07:17.969Z,92.30
2023-01-04T20:09:48.685Z,92.07
2023-01-04T20:12:17.088Z,92.23
2023-01-04T20:14:47.347Z,91.82
2023-01-04T20:17:19.054Z,91.73
2023-01-04T20:19:47.683Z,91.83
2023-01-04T20:22:16.010Z,91.88
2023-01-04T20:24:44.371Z,91.83
2023-01-04T20:27:12.755Z,91.67
2023-01-04T20:29:41.136Z,91.38
2023-01-04T20:32:11.019Z,91.18
2023-01-04T20:34:39.652Z,91.28
2023-01-04T20:37:08.034Z,91.20
2023-01-04T20:39:36.459Z,91.21
2023-01-04T20:42:22.952Z,91.32
2023-01-04T20:44:51.300Z,91.28
2023-01-04T20:47:21.052Z,91.15
2023-01-04T20:49:49.630Z,91.16
2023-01-04T20:52:18.068Z,90.91
2023-01-04T20:54:49.261Z,90.88
2023-01-04T20:57:17.903Z,91.03
2023-01-04T20:59:46.576Z,91.10
2023-01-04T21:02:15.398Z,91.67
2023-01-04T21:04:46.799Z,91.62
2023-01-04T21:07:15.360Z,92.10
2023-01-04T21:09:43.738Z,91.67
2023-01-04T21:12:12.107Z,91.65
2023-01-04T21:14:41.108Z,91.49
2023-01-04T21:17:09.756Z,91.83
2023-01-04T21:19:38.061Z,91.79
2023-01-04T21:22:08.116Z,92.01
2023-01-04T21:24:36.678Z,91.60
2023-01-04T21:27:05.163Z,91.54
2023-01-04T21:29:33.664Z,91.20
2023-01-04T21:32:02.114Z,91.80
2023-01-04T21:34:31.601Z,91.67
2023-01-04T21:37:00.532Z,91.57
2023-01-04T21:39:30.290Z,91.59
2023-01-04T21:41:58.762Z,91.75
2023-01-04T21:44:27.198Z,91.28
2023-01-04T21:46:55.738Z,91.51
2023-01-04T21:49:24.239Z,91.44
2023-01-04T21:51:52.852Z,91.83
2023-01-04T21:54:21.246Z,91.86
2023-01-04T21:56:51.037Z,92.16
2023-01-04T21:59:19.669Z,92.30
2023-01-04T22:01:48.085Z,92.23
2023-01-04T22:04:16.570Z,92.19
2023-01-04T22:06:44.945Z,92.09
2023-01-04T22:09:13.269Z,92.21
2023-01-04T22:11:43.377Z,92.03
2023-01-04T22:14:13.069Z,92.18
2023-01-04T22:16:41.658Z,92.07
2023-01-04T22:19:13.762Z,92.31
2023-01-04T22:21:42.523Z,92.03
2023-01-04T22:24:13.943Z,91.92
2023-01-04T22:26:43.035Z,91.79
2023-01-04T22:29:13.053Z,91.77
2023-01-04T22:31:41.400Z,91.64
2023-01-04T22:34:09.911Z,91.14
2023-01-04T22:36:38.283Z,91.47
2023-01-04T22:39:07.144Z,91.22
2023-01-04T22:41:35.962Z,91.35
2023-01-04T22:44:06.513Z,91.53
2023-01-04T22:46:37.495Z,91.28
2023-01-04T22:49:06.073Z,91.39
2023-01-04T22:51:34.461Z,91.20
2023-01-04T22:54:05.710Z,91.15
2023-01-04T22:56:34.161Z,90.94
2023-01-04T22:59:02.542Z,90.89
2023-01-04T23:01:34.107Z,90.59
2023-01-04T23:04:04.615Z,90.48
2023-01-04T23:06:33.796Z,90.43
2023-01-04T23:09:05.285Z,90.03
2023-01-04T23:11:35.507Z,89.74
2023-01-04T23:14:06.183Z,89.51
2023-01-04T23:16:34.472Z,89.47
2023-01-04T23:19:06.588Z,89.63
2023-01-04T23:21:36.254Z,89.61
2023-01-04T23:24:06.656Z,89.28
2023-01-04T23:26:35.691Z,89.57
2023-01-04T23:29:04.492Z,89.03
2023-01-04T23:31:34.108Z,88.95
2023-01-04T23:34:06.639Z,88.71
2023-01-04T23:36:37.907Z,88.47
2023-01-04T23:39:10.566Z,88.30
2023-01-04T23:41:48.076Z,88.06
2023-01-04T23:46:53.874Z,88.25
2023-01-04T23:49:25.471Z,88.05
2023-01-04T23:51:54.425Z,88.14
2023-01-04T23:54:23.648Z,88.41
2023-01-04T23:56:52.505Z,88.40
2023-01-04T23:59:21.643Z,88.38
